Eaton, Colorado
Current Conditions -  °F | °C
As of 6:35 PM on Monday 20 Oct 2014 (Local Time) from KGXY Reporting Station
Clear Clear  
Wind Chill: 19°   Ceiling: Unl
Heat Index: 19°   Visibility: 10mi
Dew Point:   Wind: 10mph
Humidity: 32%   Direction: 150°SSE
Pressure: 30.03"   Gusts: NA
Location:  40.53°N, 104.71°W
Report Text: KGXY 210035Z AUTO 15009KT 10SM CLR 19/02 A3003 RMK AO1
Loading
Personal Weather Stations






























Interactive Weather Map
Tropical Storm Tracking
New forecast layout! Learn more

10-Day Weather Forecast

Advertisements
Track Severe Weather on mobile